sensor_id;sensor_type;location;lat;lon;timestamp;temperature;humidity
78694;SHT31;68029;51.978;5.646;2023-07-13T00:01:15;19.2;61.8
78694;SHT31;68029;51.978;5.646;2023-07-13T00:03:44;19.2;62.3
78694;SHT31;68029;51.978;5.646;2023-07-13T00:06:13;19.2;62.0
78694;SHT31;68029;51.978;5.646;2023-07-13T00:08:42;19.2;61.5
78694;SHT31;68029;51.978;5.646;2023-07-13T00:11:12;19.2;61.1
78694;SHT31;68029;51.978;5.646;2023-07-13T00:13:43;19.2;60.6
78694;SHT31;68029;51.978;5.646;2023-07-13T00:16:12;19.2;60.4
78694;SHT31;68029;51.978;5.646;2023-07-13T00:18:41;19.1;60.4
78694;SHT31;68029;51.978;5.646;2023-07-13T00:21:12;19.1;60.3
78694;SHT31;68029;51.978;5.646;2023-07-13T00:23:42;19.1;60.4
78694;SHT31;68029;51.978;5.646;2023-07-13T00:26:11;19.0;60.9
78694;SHT31;68029;51.978;5.646;2023-07-13T00:28:42;19.0;60.8
78694;SHT31;68029;51.978;5.646;2023-07-13T00:31:12;18.9;60.9
78694;SHT31;68029;51.978;5.646;2023-07-13T00:33:44;18.9;60.9
78694;SHT31;68029;51.978;5.646;2023-07-13T00:36:12;18.9;60.9
78694;SHT31;68029;51.978;5.646;2023-07-13T00:38:41;18.8;61.5
78694;SHT31;68029;51.978;5.646;2023-07-13T00:41:11;18.8;61.6
78694;SHT31;68029;51.978;5.646;2023-07-13T00:43:40;18.8;62.2
78694;SHT31;68029;51.978;5.646;2023-07-13T00:46:16;18.8;61.9
78694;SHT31;68029;51.978;5.646;2023-07-13T00:48:48;18.7;63.0
78694;SHT31;68029;51.978;5.646;2023-07-13T00:51:20;18.7;62.2
78694;SHT31;68029;51.978;5.646;2023-07-13T00:53:51;18.7;62.4
78694;SHT31;68029;51.978;5.646;2023-07-13T00:56:21;18.7;62.5
78694;SHT31;68029;51.978;5.646;2023-07-13T00:58:50;18.7;62.4
78694;SHT31;68029;51.978;5.646;2023-07-13T01:01:20;18.6;62.6
78694;SHT31;68029;51.978;5.646;2023-07-13T01:03:49;18.6;62.5
78694;SHT31;68029;51.978;5.646;2023-07-13T01:06:17;18.5;62.7
78694;SHT31;68029;51.978;5.646;2023-07-13T01:08:46;18.5;63.0
78694;SHT31;68029;51.978;5.646;2023-07-13T01:11:18;18.5;63.0
78694;SHT31;68029;51.978;5.646;2023-07-13T01:13:49;18.4;63.2
78694;SHT31;68029;51.978;5.646;2023-07-13T01:16:25;18.4;63.3
78694;SHT31;68029;51.978;5.646;2023-07-13T01:18:55;18.4;63.5
78694;SHT31;68029;51.978;5.646;2023-07-13T01:21:29;18.4;63.4
78694;SHT31;68029;51.978;5.646;2023-07-13T01:24:00;18.3;63.6
78694;SHT31;68029;51.978;5.646;2023-07-13T01:26:29;18.3;63.8
78694;SHT31;68029;51.978;5.646;2023-07-13T01:28:57;18.3;63.6
78694;SHT31;68029;51.978;5.646;2023-07-13T01:31:27;18.3;63.7
78694;SHT31;68029;51.978;5.646;2023-07-13T01:33:55;18.3;63.8
78694;SHT31;68029;51.978;5.646;2023-07-13T01:36:24;18.2;63.8
78694;SHT31;68029;51.978;5.646;2023-07-13T01:38:55;18.2;63.8
78694;SHT31;68029;51.978;5.646;2023-07-13T01:41:24;18.2;64.0
78694;SHT31;68029;51.978;5.646;2023-07-13T01:43:52;18.1;64.0
78694;SHT31;68029;51.978;5.646;2023-07-13T01:46:21;18.1;64.3
78694;SHT31;68029;51.978;5.646;2023-07-13T01:48:50;18.1;64.1
78694;SHT31;68029;51.978;5.646;2023-07-13T01:51:21;18.1;64.3
78694;SHT31;68029;51.978;5.646;2023-07-13T01:53:52;18.0;64.3
78694;SHT31;68029;51.978;5.646;2023-07-13T01:56:21;18.0;64.5
78694;SHT31;68029;51.978;5.646;2023-07-13T01:58:49;18.0;64.6
78694;SHT31;68029;51.978;5.646;2023-07-13T02:01:18;18.0;65.1
78694;SHT31;68029;51.978;5.646;2023-07-13T02:03:46;17.9;65.0
78694;SHT31;68029;51.978;5.646;2023-07-13T02:06:15;17.9;65.1
78694;SHT31;68029;51.978;5.646;2023-07-13T02:08:44;17.9;64.8
78694;SHT31;68029;51.978;5.646;2023-07-13T02:11:13;17.9;65.1
78694;SHT31;68029;51.978;5.646;2023-07-13T02:13:42;17.9;64.9
78694;SHT31;68029;51.978;5.646;2023-07-13T02:16:11;17.8;65.0
78694;SHT31;68029;51.978;5.646;2023-07-13T02:18:41;17.8;65.1
78694;SHT31;68029;51.978;5.646;2023-07-13T02:21:10;17.7;65.4
78694;SHT31;68029;51.978;5.646;2023-07-13T02:23:39;17.7;65.4
78694;SHT31;68029;51.978;5.646;2023-07-13T02:26:07;17.7;65.7
78694;SHT31;68029;51.978;5.646;2023-07-13T02:28:38;17.6;65.8
78694;SHT31;68029;51.978;5.646;2023-07-13T02:31:09;17.6;66.0
78694;SHT31;68029;51.978;5.646;2023-07-13T02:33:39;17.6;65.9
78694;SHT31;68029;51.978;5.646;2023-07-13T02:36:09;17.6;65.9
78694;SHT31;68029;51.978;5.646;2023-07-13T02:38:38;17.6;66.3
78694;SHT31;68029;51.978;5.646;2023-07-13T02:41:08;17.6;66.4
78694;SHT31;68029;51.978;5.646;2023-07-13T02:43:37;17.6;66.3
78694;SHT31;68029;51.978;5.646;2023-07-13T02:46:06;17.5;66.6
78694;SHT31;68029;51.978;5.646;2023-07-13T02:48:37;17.5;66.7
78694;SHT31;68029;51.978;5.646;2023-07-13T02:51:07;17.5;66.8
78694;SHT31;68029;51.978;5.646;2023-07-13T02:53:37;17.5;66.9
78694;SHT31;68029;51.978;5.646;2023-07-13T02:56:06;17.5;67.1
78694;SHT31;68029;51.978;5.646;2023-07-13T02:58:35;17.4;67.2
78694;SHT31;68029;51.978;5.646;2023-07-13T03:01:09;17.4;67.3
78694;SHT31;68029;51.978;5.646;2023-07-13T03:03:39;17.4;67.4
78694;SHT31;68029;51.978;5.646;2023-07-13T03:06:07;17.3;67.7
78694;SHT31;68029;51.978;5.646;2023-07-13T03:08:36;17.3;67.9
78694;SHT31;68029;51.978;5.646;2023-07-13T03:11:08;17.3;68.0
78694;SHT31;68029;51.978;5.646;2023-07-13T03:13:38;17.2;68.3
78694;SHT31;68029;51.978;5.646;2023-07-13T03:16:08;17.2;68.7
78694;SHT31;68029;51.978;5.646;2023-07-13T03:18:38;17.1;68.8
78694;SHT31;68029;51.978;5.646;2023-07-13T03:21:07;17.1;69.2
78694;SHT31;68029;51.978;5.646;2023-07-13T03:23:36;17.0;69.4
78694;SHT31;68029;51.978;5.646;2023-07-13T03:26:08;17.0;69.6
78694;SHT31;68029;51.978;5.646;2023-07-13T03:28:39;17.0;69.9
78694;SHT31;68029;51.978;5.646;2023-07-13T03:31:11;17.0;70.2
78694;SHT31;68029;51.978;5.646;2023-07-13T03:33:40;16.9;70.2
78694;SHT31;68029;51.978;5.646;2023-07-13T03:36:13;16.9;70.2
78694;SHT31;68029;51.978;5.646;2023-07-13T03:38:42;16.9;70.3
78694;SHT31;68029;51.978;5.646;2023-07-13T03:41:12;16.9;70.5
78694;SHT31;68029;51.978;5.646;2023-07-13T03:43:41;16.9;70.7
78694;SHT31;68029;51.978;5.646;2023-07-13T03:46:10;16.8;71.1
78694;SHT31;68029;51.978;5.646;2023-07-13T03:48:40;16.8;71.2
78694;SHT31;68029;51.978;5.646;2023-07-13T03:51:11;16.8;71.1
78694;SHT31;68029;51.978;5.646;2023-07-13T03:53:43;16.8;71.2
78694;SHT31;68029;51.978;5.646;2023-07-13T03:56:13;16.8;71.2
78694;SHT31;68029;51.978;5.646;2023-07-13T03:58:46;16.8;71.3
78694;SHT31;68029;51.978;5.646;2023-07-13T04:01:17;16.8;71.3
78694;SHT31;68029;51.978;5.646;2023-07-13T04:03:46;16.8;71.4
78694;SHT31;68029;51.978;5.646;2023-07-13T04:06:18;16.8;71.4
78694;SHT31;68029;51.978;5.646;2023-07-13T04:08:52;16.8;71.4
78694;SHT31;68029;51.978;5.646;2023-07-13T04:11:24;16.8;71.3
78694;SHT31;68029;51.978;5.646;2023-07-13T04:13:54;16.8;71.4
78694;SHT31;68029;51.978;5.646;2023-07-13T04:16:24;16.8;71.4
78694;SHT31;68029;51.978;5.646;2023-07-13T04:18:54;16.8;71.5
78694;SHT31;68029;51.978;5.646;2023-07-13T04:21:26;16.7;71.7
78694;SHT31;68029;51.978;5.646;2023-07-13T04:23:56;16.7;72.0
78694;SHT31;68029;51.978;5.646;2023-07-13T04:26:26;16.7;72.1
78694;SHT31;68029;51.978;5.646;2023-07-13T04:28:55;16.7;72.2
78694;SHT31;68029;51.978;5.646;2023-07-13T04:31:24;16.7;72.4
78694;SHT31;68029;51.978;5.646;2023-07-13T04:33:53;16.7;72.7
78694;SHT31;68029;51.978;5.646;2023-07-13T04:36:21;16.7;73.0
78694;SHT31;68029;51.978;5.646;2023-07-13T04:38:53;16.7;73.1
78694;SHT31;68029;51.978;5.646;2023-07-13T04:41:22;16.7;73.3
78694;SHT31;68029;51.978;5.646;2023-07-13T04:43:52;16.7;73.2
78694;SHT31;68029;51.978;5.646;2023-07-13T04:46:21;16.8;73.2
78694;SHT31;68029;51.978;5.646;2023-07-13T04:48:50;16.8;73.1
78694;SHT31;68029;51.978;5.646;2023-07-13T04:51:20;16.8;73.1
78694;SHT31;68029;51.978;5.646;2023-07-13T04:53:49;16.9;72.9
78694;SHT31;68029;51.978;5.646;2023-07-13T04:56:20;16.9;73.0
78694;SHT31;68029;51.978;5.646;2023-07-13T04:58:48;16.9;73.1
78694;SHT31;68029;51.978;5.646;2023-07-13T05:01:17;16.9;73.0
78694;SHT31;68029;51.978;5.646;2023-07-13T05:03:46;17.0;73.2
78694;SHT31;68029;51.978;5.646;2023-07-13T05:06:15;17.0;73.0
78694;SHT31;68029;51.978;5.646;2023-07-13T05:08:43;17.0;73.2
78694;SHT31;68029;51.978;5.646;2023-07-13T05:11:12;17.1;73.2
78694;SHT31;68029;51.978;5.646;2023-07-13T05:13:40;17.1;73.1
78694;SHT31;68029;51.978;5.646;2023-07-13T05:16:09;17.1;73.0
78694;SHT31;68029;51.978;5.646;2023-07-13T05:18:40;17.2;72.9
78694;SHT31;68029;51.978;5.646;2023-07-13T05:21:10;17.2;73.4
78694;SHT31;68029;51.978;5.646;2023-07-13T05:23:40;17.2;73.0
78694;SHT31;68029;51.978;5.646;2023-07-13T05:26:10;17.3;72.9
78694;SHT31;68029;51.978;5.646;2023-07-13T05:28:39;17.3;73.2
78694;SHT31;68029;51.978;5.646;2023-07-13T05:31:09;17.3;73.0
78694;SHT31;68029;51.978;5.646;2023-07-13T05:33:39;17.4;72.7
78694;SHT31;68029;51.978;5.646;2023-07-13T05:36:09;17.4;72.7
78694;SHT31;68029;51.978;5.646;2023-07-13T05:38:37;17.5;73.0
78694;SHT31;68029;51.978;5.646;2023-07-13T05:41:06;17.5;72.9
78694;SHT31;68029;51.978;5.646;2023-07-13T05:43:37;17.6;72.9
78694;SHT31;68029;51.978;5.646;2023-07-13T05:46:05;17.6;72.9
78694;SHT31;68029;51.978;5.646;2023-07-13T05:48:34;17.7;72.8
78694;SHT31;68029;51.978;5.646;2023-07-13T05:51:03;17.7;72.6
78694;SHT31;68029;51.978;5.646;2023-07-13T05:53:32;17.8;72.5
78694;SHT31;68029;51.978;5.646;2023-07-13T05:56:01;17.9;72.5
78694;SHT31;68029;51.978;5.646;2023-07-13T05:58:30;17.9;72.5
78694;SHT31;68029;51.978;5.646;2023-07-13T06:01:04;18.0;72.6
78694;SHT31;68029;51.978;5.646;2023-07-13T06:03:34;18.0;72.7
78694;SHT31;68029;51.978;5.646;2023-07-13T06:06:04;18.0;72.7
78694;SHT31;68029;51.978;5.646;2023-07-13T06:08:34;18.1;72.7
78694;SHT31;68029;51.978;5.646;2023-07-13T06:11:05;18.1;73.2
78694;SHT31;68029;51.978;5.646;2023-07-13T06:13:34;18.1;73.1
78694;SHT31;68029;51.978;5.646;2023-07-13T06:16:04;18.2;73.3
78694;SHT31;68029;51.978;5.646;2023-07-13T06:18:35;18.3;73.5
78694;SHT31;68029;51.978;5.646;2023-07-13T06:21:08;18.4;73.0
78694;SHT31;68029;51.978;5.646;2023-07-13T06:23:42;18.5;72.9
78694;SHT31;68029;51.978;5.646;2023-07-13T06:26:12;18.6;72.4
78694;SHT31;68029;51.978;5.646;2023-07-13T06:28:40;18.7;72.2
78694;SHT31;68029;51.978;5.646;2023-07-13T06:31:12;18.8;71.8
78694;SHT31;68029;51.978;5.646;2023-07-13T06:33:44;18.9;72.1
78694;SHT31;68029;51.978;5.646;2023-07-13T06:36:13;19.0;71.7
78694;SHT31;68029;51.978;5.646;2023-07-13T06:38:41;19.2;71.1
78694;SHT31;68029;51.978;5.646;2023-07-13T06:41:10;19.3;70.6
78694;SHT31;68029;51.978;5.646;2023-07-13T06:43:39;19.4;70.1
78694;SHT31;68029;51.978;5.646;2023-07-13T06:46:09;19.6;69.5
78694;SHT31;68029;51.978;5.646;2023-07-13T06:48:38;19.7;69.3
78694;SHT31;68029;51.978;5.646;2023-07-13T06:51:08;19.8;68.8
78694;SHT31;68029;51.978;5.646;2023-07-13T06:53:37;19.9;67.6
78694;SHT31;68029;51.978;5.646;2023-07-13T06:56:06;20.0;67.9
78694;SHT31;68029;51.978;5.646;2023-07-13T06:58:35;20.0;67.8
78694;SHT31;68029;51.978;5.646;2023-07-13T07:01:04;20.1;67.2
78694;SHT31;68029;51.978;5.646;2023-07-13T07:03:35;20.1;66.9
78694;SHT31;68029;51.978;5.646;2023-07-13T07:06:14;20.2;66.7
78694;SHT31;68029;51.978;5.646;2023-07-13T07:08:44;20.2;66.5
78694;SHT31;68029;51.978;5.646;2023-07-13T07:11:16;20.2;66.4
78694;SHT31;68029;51.978;5.646;2023-07-13T07:13:45;20.2;66.8
78694;SHT31;68029;51.978;5.646;2023-07-13T07:16:14;20.3;67.5
78694;SHT31;68029;51.978;5.646;2023-07-13T07:18:42;20.3;66.7
78694;SHT31;68029;51.978;5.646;2023-07-13T07:21:12;20.3;66.1
78694;SHT31;68029;51.978;5.646;2023-07-13T07:23:41;20.3;66.2
78694;SHT31;68029;51.978;5.646;2023-07-13T07:26:10;20.4;66.3
78694;SHT31;68029;51.978;5.646;2023-07-13T07:28:41;20.4;65.9
78694;SHT31;68029;51.978;5.646;2023-07-13T07:31:10;20.4;66.8
78694;SHT31;68029;51.978;5.646;2023-07-13T07:33:41;20.4;66.8
78694;SHT31;68029;51.978;5.646;2023-07-13T07:36:10;20.5;66.7
78694;SHT31;68029;51.978;5.646;2023-07-13T07:38:39;20.5;65.9
78694;SHT31;68029;51.978;5.646;2023-07-13T07:41:08;20.5;66.2
78694;SHT31;68029;51.978;5.646;2023-07-13T07:43:36;20.6;65.7
78694;SHT31;68029;51.978;5.646;2023-07-13T07:46:05;20.6;65.4
78694;SHT31;68029;51.978;5.646;2023-07-13T07:48:34;20.6;65.7
78694;SHT31;68029;51.978;5.646;2023-07-13T07:51:03;20.7;65.8
78694;SHT31;68029;51.978;5.646;2023-07-13T07:53:31;20.8;65.8
78694;SHT31;68029;51.978;5.646;2023-07-13T07:56:00;20.8;65.8
78694;SHT31;68029;51.978;5.646;2023-07-13T07:58:28;20.9;64.8
78694;SHT31;68029;51.978;5.646;2023-07-13T08:01:04;21.0;64.8
78694;SHT31;68029;51.978;5.646;2023-07-13T08:03:33;21.1;64.2
78694;SHT31;68029;51.978;5.646;2023-07-13T08:06:02;21.2;64.6
78694;SHT31;68029;51.978;5.646;2023-07-13T08:08:30;21.4;63.8
78694;SHT31;68029;51.978;5.646;2023-07-13T08:11:02;21.6;63.0
78694;SHT31;68029;51.978;5.646;2023-07-13T08:13:31;21.8;62.2
78694;SHT31;68029;51.978;5.646;2023-07-13T08:16:00;22.0;61.5
78694;SHT31;68029;51.978;5.646;2023-07-13T08:18:29;22.2;60.7
78694;SHT31;68029;51.978;5.646;2023-07-13T08:20:58;22.3;59.7
78694;SHT31;68029;51.978;5.646;2023-07-13T08:23:33;22.4;59.7
78694;SHT31;68029;51.978;5.646;2023-07-13T08:26:03;22.4;59.3
78694;SHT31;68029;51.978;5.646;2023-07-13T08:28:33;22.5;58.9
78694;SHT31;68029;51.978;5.646;2023-07-13T08:31:05;22.4;59.0
78694;SHT31;68029;51.978;5.646;2023-07-13T08:33:36;22.4;58.9
78694;SHT31;68029;51.978;5.646;2023-07-13T08:36:07;22.4;61.1
78694;SHT31;68029;51.978;5.646;2023-07-13T08:38:38;22.4;60.4
78694;SHT31;68029;51.978;5.646;2023-07-13T08:41:14;22.4;59.5
78694;SHT31;68029;51.978;5.646;2023-07-13T08:43:49;22.6;57.5
78694;SHT31;68029;51.978;5.646;2023-07-13T08:46:20;22.8;56.6
78694;SHT31;68029;51.978;5.646;2023-07-13T08:48:56;23.0;55.3
78694;SHT31;68029;51.978;5.646;2023-07-13T08:51:31;23.2;54.0
78694;SHT31;68029;51.978;5.646;2023-07-13T08:54:07;23.4;54.0
78694;SHT31;68029;51.978;5.646;2023-07-13T08:56:38;23.5;53.0
78694;SHT31;68029;51.978;5.646;2023-07-13T08:59:15;23.6;54.1
78694;SHT31;68029;51.978;5.646;2023-07-13T09:02:04;23.7;54.7
78694;SHT31;68029;51.978;5.646;2023-07-13T09:04:44;23.8;53.9
78694;SHT31;68029;51.978;5.646;2023-07-13T09:07:25;23.8;52.8
78694;SHT31;68029;51.978;5.646;2023-07-13T09:10:08;23.8;53.0
78694;SHT31;68029;51.978;5.646;2023-07-13T09:12:51;23.8;52.3
78694;SHT31;68029;51.978;5.646;2023-07-13T09:15:30;23.6;53.3
78694;SHT31;68029;51.978;5.646;2023-07-13T09:18:05;23.4;54.0
78694;SHT31;68029;51.978;5.646;2023-07-13T09:20:41;23.2;54.4
78694;SHT31;68029;51.978;5.646;2023-07-13T09:23:15;23.1;54.9
78694;SHT31;68029;51.978;5.646;2023-07-13T09:25:49;22.9;56.3
78694;SHT31;68029;51.978;5.646;2023-07-13T09:28:25;22.7;58.0
78694;SHT31;68029;51.978;5.646;2023-07-13T09:31:01;22.6;58.3
78694;SHT31;68029;51.978;5.646;2023-07-13T09:33:32;22.4;59.2
78694;SHT31;68029;51.978;5.646;2023-07-13T09:36:16;22.3;60.5
78694;SHT31;68029;51.978;5.646;2023-07-13T09:38:47;22.2;61.2
78694;SHT31;68029;51.978;5.646;2023-07-13T09:41:23;22.2;62.3
78694;SHT31;68029;51.978;5.646;2023-07-13T09:44:10;22.2;63.0
78694;SHT31;68029;51.978;5.646;2023-07-13T09:46:43;22.2;63.7
78694;SHT31;68029;51.978;5.646;2023-07-13T09:49:13;22.3;62.7
78694;SHT31;68029;51.978;5.646;2023-07-13T09:51:42;22.5;61.7
78694;SHT31;68029;51.978;5.646;2023-07-13T09:54:21;22.9;60.4
78694;SHT31;68029;51.978;5.646;2023-07-13T09:56:56;23.3;58.2
78694;SHT31;68029;51.978;5.646;2023-07-13T09:59:30;23.7;56.4
78694;SHT31;68029;51.978;5.646;2023-07-13T10:01:59;24.2;55.9
78694;SHT31;68029;51.978;5.646;2023-07-13T10:04:32;24.7;56.5
78694;SHT31;68029;51.978;5.646;2023-07-13T10:07:13;25.2;53.6
78694;SHT31;68029;51.978;5.646;2023-07-13T10:09:41;25.5;50.6
78694;SHT31;68029;51.978;5.646;2023-07-13T10:12:15;25.7;50.3
78694;SHT31;68029;51.978;5.646;2023-07-13T10:14:45;25.8;50.8
78694;SHT31;68029;51.978;5.646;2023-07-13T10:17:14;25.8;51.0
78694;SHT31;68029;51.978;5.646;2023-07-13T10:19:48;25.8;49.8
78694;SHT31;68029;51.978;5.646;2023-07-13T10:22:27;25.7;51.9
78694;SHT31;68029;51.978;5.646;2023-07-13T10:24:57;25.6;51.1
78694;SHT31;68029;51.978;5.646;2023-07-13T10:27:31;25.5;51.3
78694;SHT31;68029;51.978;5.646;2023-07-13T10:30:11;25.3;51.4
78694;SHT31;68029;51.978;5.646;2023-07-13T10:32:42;25.2;52.2
78694;SHT31;68029;51.978;5.646;2023-07-13T10:35:14;25.1;52.0
78694;SHT31;68029;51.978;5.646;2023-07-13T10:37:49;25.1;51.2
78694;SHT31;68029;51.978;5.646;2023-07-13T10:40:27;25.1;49.7
78694;SHT31;68029;51.978;5.646;2023-07-13T10:43:04;25.1;47.4
78694;SHT31;68029;51.978;5.646;2023-07-13T10:45:36;25.0;49.3
78694;SHT31;68029;51.978;5.646;2023-07-13T10:48:13;24.9;47.4
78694;SHT31;68029;51.978;5.646;2023-07-13T10:50:46;24.8;48.0
78694;SHT31;68029;51.978;5.646;2023-07-13T10:53:21;24.8;51.5
78694;SHT31;68029;51.978;5.646;2023-07-13T10:56:00;24.8;52.9
78694;SHT31;68029;51.978;5.646;2023-07-13T10:58:36;24.9;50.8
78694;SHT31;68029;51.978;5.646;2023-07-13T11:01:08;25.1;52.4
78694;SHT31;68029;51.978;5.646;2023-07-13T11:03:53;25.1;53.4
78694;SHT31;68029;51.978;5.646;2023-07-13T11:06:34;25.0;52.5
78694;SHT31;68029;51.978;5.646;2023-07-13T11:09:38;24.9;53.8
78694;SHT31;68029;51.978;5.646;2023-07-13T11:12:29;24.8;56.1
78694;SHT31;68029;51.978;5.646;2023-07-13T11:15:10;24.9;54.0
78694;SHT31;68029;51.978;5.646;2023-07-13T11:17:49;25.0;52.6
78694;SHT31;68029;51.978;5.646;2023-07-13T11:20:37;25.2;51.4
78694;SHT31;68029;51.978;5.646;2023-07-13T11:23:30;25.4;52.6
78694;SHT31;68029;51.978;5.646;2023-07-13T11:26:00;25.7;52.8
78694;SHT31;68029;51.978;5.646;2023-07-13T11:28:32;26.1;52.1
78694;SHT31;68029;51.978;5.646;2023-07-13T11:31:11;26.6;49.3
78694;SHT31;68029;51.978;5.646;2023-07-13T11:33:56;27.0;47.6
78694;SHT31;68029;51.978;5.646;2023-07-13T11:36:31;27.4;47.0
78694;SHT31;68029;51.978;5.646;2023-07-13T11:39:16;27.6;46.2
78694;SHT31;68029;51.978;5.646;2023-07-13T11:41:49;27.7;45.3
78694;SHT31;68029;51.978;5.646;2023-07-13T11:44:22;27.8;45.5
78694;SHT31;68029;51.978;5.646;2023-07-13T11:46:52;27.8;44.6
78694;SHT31;68029;51.978;5.646;2023-07-13T11:49:25;27.7;45.4
78694;SHT31;68029;51.978;5.646;2023-07-13T11:51:55;27.6;44.5
78694;SHT31;68029;51.978;5.646;2023-07-13T11:54:29;27.4;45.5
78694;SHT31;68029;51.978;5.646;2023-07-13T11:57:02;27.2;44.5
78694;SHT31;68029;51.978;5.646;2023-07-13T11:59:40;27.1;45.6
78694;SHT31;68029;51.978;5.646;2023-07-13T12:02:17;27.0;44.7
78694;SHT31;68029;51.978;5.646;2023-07-13T12:04:50;27.0;43.8
78694;SHT31;68029;51.978;5.646;2023-07-13T12:07:19;27.0;43.2
78694;SHT31;68029;51.978;5.646;2023-07-13T12:09:48;27.1;44.5
78694;SHT31;68029;51.978;5.646;2023-07-13T12:12:21;27.2;44.2
78694;SHT31;68029;51.978;5.646;2023-07-13T12:14:52;27.3;44.6
78694;SHT31;68029;51.978;5.646;2023-07-13T12:17:23;27.3;44.5
78694;SHT31;68029;51.978;5.646;2023-07-13T12:19:53;27.3;44.6
78694;SHT31;68029;51.978;5.646;2023-07-13T12:22:22;27.3;44.4
78694;SHT31;68029;51.978;5.646;2023-07-13T12:24:52;27.3;44.9
78694;SHT31;68029;51.978;5.646;2023-07-13T12:27:24;27.4;43.7
78694;SHT31;68029;51.978;5.646;2023-07-13T12:30:01;27.4;43.7
78694;SHT31;68029;51.978;5.646;2023-07-13T12:32:32;27.5;43.5
78694;SHT31;68029;51.978;5.646;2023-07-13T12:35:15;27.5;43.3
78694;SHT31;68029;51.978;5.646;2023-07-13T12:37:46;27.6;43.7
78694;SHT31;68029;51.978;5.646;2023-07-13T12:40:17;27.6;42.7
78694;SHT31;68029;51.978;5.646;2023-07-13T12:42:50;27.7;41.7
78694;SHT31;68029;51.978;5.646;2023-07-13T12:45:22;27.8;42.2
78694;SHT31;68029;51.978;5.646;2023-07-13T12:47:55;27.9;40.3
78694;SHT31;68029;51.978;5.646;2023-07-13T12:50:30;28.0;41.2
78694;SHT31;68029;51.978;5.646;2023-07-13T12:53:05;28.0;39.7
78694;SHT31;68029;51.978;5.646;2023-07-13T12:55:46;28.0;40.3
78694;SHT31;68029;51.978;5.646;2023-07-13T12:58:26;27.9;42.5
78694;SHT31;68029;51.978;5.646;2023-07-13T13:00:54;27.9;41.3
78694;SHT31;68029;51.978;5.646;2023-07-13T13:03:30;27.9;41.0
78694;SHT31;68029;51.978;5.646;2023-07-13T13:06:02;27.9;39.8
78694;SHT31;68029;51.978;5.646;2023-07-13T13:08:34;27.9;39.3
78694;SHT31;68029;51.978;5.646;2023-07-13T13:11:03;27.9;39.6
78694;SHT31;68029;51.978;5.646;2023-07-13T13:13:32;27.9;38.7
78694;SHT31;68029;51.978;5.646;2023-07-13T13:16:09;27.9;38.5
78694;SHT31;68029;51.978;5.646;2023-07-13T13:18:38;27.9;39.3
78694;SHT31;68029;51.978;5.646;2023-07-13T13:21:06;27.9;39.7
78694;SHT31;68029;51.978;5.646;2023-07-13T13:23:35;27.9;39.3
78694;SHT31;68029;51.978;5.646;2023-07-13T13:26:10;28.0;39.9
78694;SHT31;68029;51.978;5.646;2023-07-13T13:28:39;28.0;40.3
78694;SHT31;68029;51.978;5.646;2023-07-13T13:31:09;28.0;40.7
78694;SHT31;68029;51.978;5.646;2023-07-13T13:33:41;28.0;40.9
78694;SHT31;68029;51.978;5.646;2023-07-13T13:36:16;28.0;39.5
78694;SHT31;68029;51.978;5.646;2023-07-13T13:38:47;28.1;39.0
78694;SHT31;68029;51.978;5.646;2023-07-13T13:41:17;28.1;39.9
78694;SHT31;68029;51.978;5.646;2023-07-13T13:43:46;28.1;40.4
78694;SHT31;68029;51.978;5.646;2023-07-13T13:46:18;28.2;39.0
78694;SHT31;68029;51.978;5.646;2023-07-13T13:48:48;28.2;39.4
78694;SHT31;68029;51.978;5.646;2023-07-13T13:51:19;28.2;39.8
78694;SHT31;68029;51.978;5.646;2023-07-13T13:53:52;28.2;39.5
78694;SHT31;68029;51.978;5.646;2023-07-13T13:56:21;28.1;40.8
78694;SHT31;68029;51.978;5.646;2023-07-13T13:58:50;28.1;39.6
78694;SHT31;68029;51.978;5.646;2023-07-13T14:01:20;28.0;39.9
78694;SHT31;68029;51.978;5.646;2023-07-13T14:03:51;27.9;39.7
78694;SHT31;68029;51.978;5.646;2023-07-13T14:06:20;27.7;39.6
78694;SHT31;68029;51.978;5.646;2023-07-13T14:08:49;27.6;39.4
78694;SHT31;68029;51.978;5.646;2023-07-13T14:11:21;27.5;39.7
78694;SHT31;68029;51.978;5.646;2023-07-13T14:13:53;27.4;40.5
78694;SHT31;68029;51.978;5.646;2023-07-13T14:16:27;27.3;40.0
78694;SHT31;68029;51.978;5.646;2023-07-13T14:19:00;27.3;40.2
78694;SHT31;68029;51.978;5.646;2023-07-13T14:21:30;27.3;40.2
78694;SHT31;68029;51.978;5.646;2023-07-13T14:23:59;27.3;40.3
78694;SHT31;68029;51.978;5.646;2023-07-13T14:26:31;27.3;41.1
78694;SHT31;68029;51.978;5.646;2023-07-13T14:29:01;27.3;40.5
78694;SHT31;68029;51.978;5.646;2023-07-13T14:31:30;27.3;40.3
78694;SHT31;68029;51.978;5.646;2023-07-13T14:33:58;27.3;39.2
78694;SHT31;68029;51.978;5.646;2023-07-13T14:36:29;27.3;39.9
78694;SHT31;68029;51.978;5.646;2023-07-13T14:39:05;27.2;40.5
78694;SHT31;68029;51.978;5.646;2023-07-13T14:41:34;27.1;41.0
78694;SHT31;68029;51.978;5.646;2023-07-13T14:44:08;27.0;41.7
78694;SHT31;68029;51.978;5.646;2023-07-13T14:46:39;26.9;41.6
78694;SHT31;68029;51.978;5.646;2023-07-13T14:49:15;26.7;40.8
78694;SHT31;68029;51.978;5.646;2023-07-13T14:51:45;26.6;40.6
78694;SHT31;68029;51.978;5.646;2023-07-13T14:54:14;26.5;39.8
78694;SHT31;68029;51.978;5.646;2023-07-13T14:56:42;26.3;40.3
78694;SHT31;68029;51.978;5.646;2023-07-13T14:59:13;26.2;40.9
78694;SHT31;68029;51.978;5.646;2023-07-13T15:01:42;26.1;41.4
78694;SHT31;68029;51.978;5.646;2023-07-13T15:04:11;26.0;41.5
78694;SHT31;68029;51.978;5.646;2023-07-13T15:06:57;26.0;41.2
78694;SHT31;68029;51.978;5.646;2023-07-13T15:09:29;25.9;41.2
78694;SHT31;68029;51.978;5.646;2023-07-13T15:11:58;25.8;41.7
78694;SHT31;68029;51.978;5.646;2023-07-13T15:14:27;25.8;43.3
78694;SHT31;68029;51.978;5.646;2023-07-13T15:16:56;25.7;42.4
78694;SHT31;68029;51.978;5.646;2023-07-13T15:19:25;25.6;41.3
78694;SHT31;68029;51.978;5.646;2023-07-13T15:21:55;25.6;42.0
78694;SHT31;68029;51.978;5.646;2023-07-13T15:24:27;25.6;42.7
78694;SHT31;68029;51.978;5.646;2023-07-13T15:26:56;25.5;42.3
78694;SHT31;68029;51.978;5.646;2023-07-13T15:29:27;25.5;42.3
78694;SHT31;68029;51.978;5.646;2023-07-13T15:31:56;25.5;42.1
78694;SHT31;68029;51.978;5.646;2023-07-13T15:34:27;25.4;42.1
78694;SHT31;68029;51.978;5.646;2023-07-13T15:36:58;25.4;43.6
78694;SHT31;68029;51.978;5.646;2023-07-13T15:39:27;25.3;43.1
78694;SHT31;68029;51.978;5.646;2023-07-13T15:41:57;25.3;43.9
78694;SHT31;68029;51.978;5.646;2023-07-13T15:44:29;25.3;43.9
78694;SHT31;68029;51.978;5.646;2023-07-13T15:47:00;25.3;43.9
78694;SHT31;68029;51.978;5.646;2023-07-13T15:49:31;25.3;44.1
78694;SHT31;68029;51.978;5.646;2023-07-13T15:52:02;25.3;44.1
78694;SHT31;68029;51.978;5.646;2023-07-13T15:54:30;25.3;45.3
78694;SHT31;68029;51.978;5.646;2023-07-13T15:57:01;25.4;43.9
78694;SHT31;68029;51.978;5.646;2023-07-13T15:59:33;25.4;44.4
78694;SHT31;68029;51.978;5.646;2023-07-13T16:02:09;25.5;43.9
78694;SHT31;68029;51.978;5.646;2023-07-13T16:04:41;25.5;42.5
78694;SHT31;68029;51.978;5.646;2023-07-13T16:07:13;25.6;42.2
78694;SHT31;68029;51.978;5.646;2023-07-13T16:09:44;25.6;42.6
78694;SHT31;68029;51.978;5.646;2023-07-13T16:12:18;25.6;43.6
78694;SHT31;68029;51.978;5.646;2023-07-13T16:14:49;25.5;42.6
78694;SHT31;68029;51.978;5.646;2023-07-13T16:17:18;25.5;42.0
78694;SHT31;68029;51.978;5.646;2023-07-13T16:19:47;25.5;41.7
78694;SHT31;68029;51.978;5.646;2023-07-13T16:22:18;25.5;42.1
78694;SHT31;68029;51.978;5.646;2023-07-13T16:24:48;25.5;41.5
78694;SHT31;68029;51.978;5.646;2023-07-13T16:27:21;25.5;42.4
78694;SHT31;68029;51.978;5.646;2023-07-13T16:29:51;25.5;42.7